createdAt,value
2018-07-16T00:00:19.641Z,18.97
2018-07-16T00:02:47.810Z,17.07
2018-07-16T00:05:17.026Z,17.33
2018-07-16T00:07:45.634Z,18.30
2018-07-16T00:22:40.483Z,18.07
2018-07-16T00:25:09.498Z,16.80
2018-07-16T00:33:24.140Z,16.63
2018-07-16T00:35:52.631Z,17.07
2018-07-16T00:38:21.074Z,18.67
2018-07-16T00:40:49.523Z,17.97
2018-07-16T00:43:18.553Z,18.07
2018-07-16T00:45:47.046Z,17.70
2018-07-16T00:48:17.381Z,18.17
2018-07-16T00:50:45.913Z,17.67
2018-07-16T00:53:15.501Z,16.60
2018-07-16T00:55:43.964Z,17.93
2018-07-16T00:58:12.482Z,17.90
2018-07-16T01:00:41.869Z,16.67
2018-07-16T01:03:10.384Z,16.33
2018-07-16T01:05:39.270Z,15.70
2018-07-16T01:08:07.758Z,16.33
2018-07-16T01:10:36.277Z,16.30
2018-07-16T01:13:04.873Z,15.53
2018-07-16T01:15:33.044Z,17.13
2018-07-16T01:18:01.479Z,16.47
2018-07-16T01:20:29.986Z,16.20
2018-07-16T01:22:59.730Z,16.02
2018-07-16T01:25:28.195Z,16.27
2018-07-16T01:27:57.221Z,16.80
2018-07-16T01:30:25.726Z,16.03
2018-07-16T01:32:54.231Z,17.33
2018-07-16T01:35:22.730Z,17.12
2018-07-16T01:37:51.206Z,16.77
2018-07-16T01:40:19.676Z,15.80
2018-07-16T01:42:47.854Z,15.97
2018-07-16T01:45:16.714Z,15.00
2018-07-16T01:47:45.167Z,16.17
2018-07-16T01:50:13.704Z,15.80
2018-07-16T01:52:42.191Z,15.67
2018-07-16T01:55:10.655Z,15.13
2018-07-16T01:57:39.159Z,15.53
2018-07-16T02:00:07.728Z,15.10
2018-07-16T02:02:36.189Z,15.67
2018-07-16T02:05:04.746Z,15.37
2018-07-16T02:07:33.216Z,15.47
2018-07-16T02:10:01.414Z,16.03
2018-07-16T02:12:30.383Z,15.53
2018-07-16T02:14:58.514Z,14.60
2018-07-16T02:17:26.991Z,14.53
2018-07-16T02:19:55.511Z,14.70
2018-07-16T02:22:23.996Z,14.33
2018-07-16T02:24:52.705Z,14.03
2018-07-16T02:27:21.205Z,12.88
2018-07-16T02:29:49.720Z,13.30
2018-07-16T02:32:18.761Z,13.37
2018-07-16T02:34:47.355Z,13.70
2018-07-16T02:37:17.431Z,14.40
2018-07-16T02:39:46.393Z,13.50
2018-07-16T02:42:16.542Z,14.63
2018-07-16T02:44:45.020Z,14.40
2018-07-16T02:47:14.398Z,13.80
2018-07-16T02:49:42.905Z,13.40
2018-07-16T02:52:11.399Z,13.17
2018-07-16T02:54:39.533Z,12.80
2018-07-16T02:57:09.192Z,12.63
2018-07-16T02:59:37.725Z,13.50
2018-07-16T03:02:06.387Z,13.10
2018-07-16T03:04:34.925Z,12.40
2018-07-16T03:07:03.146Z,13.20
2018-07-16T03:09:31.746Z,14.03
2018-07-16T03:12:00.291Z,12.80
2018-07-16T03:17:19.754Z,12.73
2018-07-16T03:19:48.293Z,14.17
2018-07-16T03:22:17.391Z,13.30
2018-07-16T03:24:45.567Z,13.83
2018-07-16T03:39:41.527Z,13.53
2018-07-16T03:42:10.067Z,13.33
2018-07-16T03:44:38.565Z,14.57
2018-07-16T03:47:07.102Z,13.37
2018-07-16T03:49:35.591Z,14.03
2018-07-16T03:52:04.102Z,14.17
2018-07-16T03:54:32.588Z,13.25
2018-07-16T03:57:01.270Z,12.83
2018-07-16T03:59:29.762Z,12.90
2018-07-16T04:01:58.474Z,12.43
2018-07-16T04:04:26.992Z,13.10
2018-07-16T04:06:55.199Z,12.20
2018-07-16T04:09:23.667Z,14.63
2018-07-16T04:11:52.169Z,14.57
2018-07-16T04:14:20.366Z,13.08
2018-07-16T04:16:48.834Z,13.00
2018-07-16T04:19:17.817Z,13.07
2018-07-16T04:21:46.278Z,12.40
2018-07-16T04:24:16.434Z,12.88
2018-07-16T04:26:44.973Z,14.63
2018-07-16T04:29:14.172Z,13.93
2018-07-16T04:31:42.726Z,12.90
2018-07-16T04:34:11.242Z,12.30
2018-07-16T04:36:39.774Z,11.90
2018-07-16T04:39:08.256Z,11.80
2018-07-16T04:41:37.634Z,11.97
2018-07-16T04:44:06.158Z,12.70
2018-07-16T04:46:34.646Z,12.75
2018-07-16T04:49:03.162Z,11.57
2018-07-16T04:51:31.417Z,10.97
2018-07-16T04:54:00.033Z,11.53
2018-07-16T04:56:28.555Z,10.50
2018-07-16T04:58:57.329Z,10.23
2018-07-16T05:01:26.246Z,9.03
2018-07-16T05:03:55.124Z,8.20
2018-07-16T05:06:23.667Z,8.35
2018-07-16T05:08:52.170Z,7.87
2018-07-16T05:11:20.651Z,8.50
2018-07-16T05:13:49.112Z,8.00
2018-07-16T05:16:17.691Z,7.33
2018-07-16T05:18:46.352Z,7.33
2018-07-16T05:40:54.866Z,8.93
2018-07-16T05:43:23.355Z,9.40
2018-07-16T05:45:51.525Z,9.90
2018-07-16T05:48:20.052Z,11.93
2018-07-16T05:50:48.606Z,11.85
2018-07-16T05:53:17.466Z,11.93
2018-07-16T05:55:45.941Z,13.93
2018-07-16T06:10:41.591Z,13.30
2018-07-16T06:13:10.125Z,13.77
2018-07-16T06:15:38.658Z,12.93
2018-07-16T06:18:07.336Z,13.60
2018-07-16T06:20:35.837Z,12.33
2018-07-16T06:23:04.358Z,12.55
2018-07-16T06:25:32.838Z,12.37
2018-07-16T06:28:01.988Z,13.23
2018-07-16T06:30:30.478Z,13.30
2018-07-16T06:32:59.077Z,13.07
2018-07-16T06:35:27.647Z,12.60
2018-07-16T06:37:56.096Z,13.07
2018-07-16T06:40:24.690Z,12.87
2018-07-16T06:42:53.862Z,13.23
2018-07-16T06:45:22.573Z,12.97
2018-07-16T06:47:51.092Z,13.10
2018-07-16T06:50:19.659Z,13.13
2018-07-16T06:52:48.207Z,13.80
2018-07-16T06:55:17.499Z,13.60
2018-07-16T06:57:45.974Z,13.00
2018-07-16T07:00:15.876Z,12.53
2018-07-16T07:02:44.426Z,12.63
2018-07-16T07:05:12.926Z,12.03
2018-07-16T07:07:41.382Z,12.77
2018-07-16T07:10:09.875Z,13.13
2018-07-16T07:21:17.510Z,11.77
2018-07-16T07:23:46.031Z,11.07
2018-07-16T07:26:15.567Z,11.17
2018-07-16T07:28:44.033Z,12.90
2018-07-16T07:31:12.586Z,12.73
2018-07-16T07:33:41.074Z,13.03
2018-07-16T07:36:09.695Z,12.47
2018-07-16T07:44:26.905Z,13.73
2018-07-16T07:46:55.396Z,13.95
2018-07-16T07:49:24.254Z,12.47
2018-07-16T07:51:53.271Z,13.33
2018-07-16T07:54:21.892Z,11.90
2018-07-16T07:56:50.261Z,10.30
2018-07-16T07:59:18.830Z,10.00
2018-07-16T08:01:48.079Z,8.70
2018-07-16T08:04:17.461Z,9.10
2018-07-16T08:06:51.724Z,8.10
2018-07-16T08:09:21.050Z,7.90
2018-07-16T08:11:49.591Z,8.10
2018-07-16T08:14:19.738Z,8.57
2018-07-16T08:16:48.249Z,9.37
2018-07-16T08:19:17.496Z,8.50
2018-07-16T08:21:46.094Z,9.60
2018-07-16T08:24:17.613Z,9.50
2018-07-16T08:26:46.110Z,9.27
2018-07-16T08:41:41.886Z,7.00
2018-07-16T08:44:10.422Z,5.90
2018-07-16T08:46:39.367Z,6.90
2018-07-16T08:49:08.027Z,5.77
2018-07-16T08:51:36.531Z,4.97
2018-07-16T08:54:05.321Z,6.00
2018-07-16T08:56:33.826Z,4.90
2018-07-16T08:59:03.187Z,4.70
2018-07-16T09:01:31.731Z,5.17
2018-07-16T09:03:59.915Z,6.40
2018-07-16T09:06:28.427Z,6.87
2018-07-16T09:08:56.982Z,6.10
2018-07-16T09:11:25.478Z,6.50
2018-07-16T09:13:54.016Z,6.50
2018-07-16T09:16:22.542Z,6.50
2018-07-16T09:18:51.359Z,6.70
2018-07-16T09:21:21.577Z,6.10
2018-07-16T09:23:50.039Z,6.30
2018-07-16T09:26:18.227Z,6.10
2018-07-16T09:28:46.746Z,5.93
2018-07-16T09:31:16.446Z,5.53
2018-07-16T09:33:44.993Z,4.97
2018-07-16T09:36:14.741Z,4.78
2018-07-16T09:38:43.902Z,4.40
2018-07-16T09:41:12.435Z,3.50
2018-07-16T09:43:41.483Z,3.37
2018-07-16T09:46:10.776Z,3.80
2018-07-16T09:48:39.190Z,4.10
2018-07-16T09:51:07.690Z,3.10
2018-07-16T09:53:36.476Z,2.80
2018-07-16T09:56:05.157Z,3.12
2018-07-16T09:58:33.622Z,3.45
2018-07-16T10:01:07.427Z,3.53
2018-07-16T10:03:36.967Z,4.03
2018-07-16T10:06:05.838Z,4.00
2018-07-16T10:08:35.381Z,3.42
2018-07-16T10:11:03.955Z,3.60
2018-07-16T10:13:32.444Z,4.05
2018-07-16T10:16:01.239Z,3.97
2018-07-16T10:18:29.772Z,5.33
2018-07-16T10:20:58.282Z,5.80
2018-07-16T10:23:26.768Z,6.80
2018-07-16T10:25:55.417Z,5.00
2018-07-16T10:28:23.847Z,5.37
2018-07-16T10:30:52.293Z,6.23
2018-07-16T10:33:20.928Z,5.33
2018-07-16T10:35:49.527Z,6.67
2018-07-16T10:38:17.983Z,5.83
2018-07-16T10:40:46.575Z,5.83
2018-07-16T10:43:16.450Z,5.90
2018-07-16T10:45:45.095Z,5.80
2018-07-16T10:48:15.816Z,5.90
2018-07-16T10:50:45.386Z,4.60
2018-07-16T10:53:15.482Z,7.08
2018-07-16T10:55:44.932Z,6.40
2018-07-16T10:58:13.405Z,6.65
2018-07-16T11:00:41.895Z,6.20
2018-07-16T11:03:10.603Z,5.50
2018-07-16T11:05:39.005Z,4.90
2018-07-16T11:08:07.537Z,5.33
2018-07-16T11:10:36.323Z,5.40
2018-07-16T11:13:04.503Z,4.90
2018-07-16T11:15:33.054Z,4.97
2018-07-16T11:18:01.834Z,4.57
2018-07-16T11:20:31.319Z,5.20
2018-07-16T11:22:59.966Z,5.17
2018-07-16T11:25:28.529Z,5.12
2018-07-16T11:27:56.981Z,6.00
2018-07-16T11:30:25.179Z,5.47
2018-07-16T11:32:53.692Z,4.10
2018-07-16T11:35:22.216Z,5.43
2018-07-16T11:37:50.814Z,4.77
2018-07-16T11:40:19.309Z,5.20
2018-07-16T11:42:47.753Z,4.40
2018-07-16T11:45:17.324Z,4.70
2018-07-16T11:47:45.942Z,5.03
2018-07-16T11:50:15.633Z,4.60
2018-07-16T11:52:44.463Z,4.80
2018-07-16T11:55:13.271Z,4.73
2018-07-16T11:57:41.390Z,5.10
2018-07-16T12:00:09.879Z,4.73
2018-07-16T12:08:24.535Z,3.58
2018-07-16T12:10:53.035Z,3.70
2018-07-16T12:13:21.476Z,3.97
2018-07-16T12:15:49.982Z,4.00
2018-07-16T12:18:18.458Z,3.77
2018-07-16T12:20:46.933Z,4.00
2018-07-16T12:23:16.412Z,3.60
2018-07-16T12:25:44.868Z,3.77
2018-07-16T12:28:13.325Z,3.80
2018-07-16T12:30:42.014Z,3.40
2018-07-16T12:33:10.526Z,3.70
2018-07-16T12:35:39.739Z,3.40
2018-07-16T12:38:08.798Z,3.90
2018-07-16T12:40:37.402Z,3.20
2018-07-16T12:43:06.020Z,3.53
2018-07-16T12:45:34.851Z,3.50
2018-07-16T12:48:03.094Z,3.17
2018-07-16T12:50:31.629Z,3.50
2018-07-16T12:53:00.594Z,3.47
2018-07-16T12:55:29.120Z,3.43
2018-07-16T12:57:57.567Z,3.53
2018-07-16T13:00:26.220Z,3.57
2018-07-16T13:02:54.662Z,3.33
2018-07-16T13:05:23.103Z,3.37
2018-07-16T13:07:51.828Z,3.50
2018-07-16T13:10:20.254Z,3.17
2018-07-16T13:12:48.698Z,3.40
2018-07-16T13:15:17.350Z,3.30
2018-07-16T13:17:45.802Z,3.40
2018-07-16T13:20:15.694Z,3.30
2018-07-16T13:22:44.586Z,3.30
2018-07-16T13:25:13.832Z,3.40
2018-07-16T13:27:42.310Z,3.30
2018-07-16T13:30:11.263Z,3.30
2018-07-16T13:32:39.704Z,3.30
2018-07-16T13:35:08.176Z,3.23
2018-07-16T13:37:36.645Z,3.60
2018-07-16T13:40:05.142Z,3.20
2018-07-16T13:42:33.821Z,2.90
2018-07-16T13:45:02.947Z,2.90
2018-07-16T13:47:31.426Z,3.53
2018-07-16T13:49:59.891Z,3.20
2018-07-16T13:52:28.526Z,3.52
2018-07-16T13:54:58.149Z,3.60
2018-07-16T13:57:26.615Z,3.47
2018-07-16T13:59:55.082Z,3.30
2018-07-16T14:02:23.537Z,3.20
2018-07-16T14:04:51.677Z,3.10
2018-07-16T14:07:20.068Z,3.52
2018-07-16T14:09:48.640Z,3.23
2018-07-16T14:12:17.476Z,3.77
2018-07-16T14:14:45.899Z,3.10
2018-07-16T14:17:15.458Z,2.95
2018-07-16T14:19:43.932Z,3.90
2018-07-16T14:22:12.449Z,3.70
2018-07-16T14:24:40.884Z,3.37
2018-07-16T14:27:09.350Z,3.33
2018-07-16T14:29:38.645Z,3.03
2018-07-16T14:32:08.329Z,3.70
2018-07-16T14:34:36.963Z,3.30
2018-07-16T14:37:05.200Z,3.60
2018-07-16T14:39:33.951Z,3.37
2018-07-16T14:42:02.303Z,3.47
2018-07-16T14:44:30.790Z,3.73
2018-07-16T14:46:59.305Z,3.87
2018-07-16T14:49:28.783Z,3.67
2018-07-16T14:51:57.343Z,3.60
2018-07-16T14:54:25.831Z,3.83
2018-07-16T14:56:55.424Z,4.03
2018-07-16T14:59:24.052Z,4.43
2018-07-16T15:01:52.582Z,4.70
2018-07-16T15:04:21.238Z,4.08
2018-07-16T15:06:49.754Z,4.37
2018-07-16T15:09:18.222Z,3.90
2018-07-16T15:11:46.702Z,3.90
2018-07-16T15:35:16.530Z,5.33
2018-07-16T15:37:45.050Z,4.77
2018-07-16T15:40:14.160Z,6.33
2018-07-16T15:42:42.652Z,3.67
2018-07-16T15:45:11.219Z,4.50
2018-07-16T15:47:40.426Z,4.37
2018-07-16T15:50:08.579Z,4.13
2018-07-16T15:52:37.668Z,5.13
2018-07-16T15:55:06.297Z,6.30
2018-07-16T15:57:35.460Z,8.53
2018-07-16T16:00:04.146Z,6.20
2018-07-16T16:02:32.619Z,6.60
2018-07-16T16:05:01.086Z,6.70
2018-07-16T16:07:31.957Z,5.03
2018-07-16T16:10:02.025Z,4.60
2018-07-16T16:12:31.095Z,5.20
2018-07-16T16:14:59.962Z,6.90
2018-07-16T16:17:28.514Z,6.83
2018-07-16T16:19:57.072Z,6.57
2018-07-16T16:22:25.672Z,6.08
2018-07-16T16:24:54.874Z,6.30
2018-07-16T16:27:23.380Z,6.00
2018-07-16T16:29:51.894Z,6.10
2018-07-16T16:32:20.374Z,5.80
2018-07-16T16:34:48.888Z,5.63
2018-07-16T16:37:17.920Z,7.00
2018-07-16T16:39:46.048Z,6.00
2018-07-16T16:42:15.252Z,6.53
2018-07-16T16:44:43.806Z,6.87
2018-07-16T16:47:12.324Z,6.00
2018-07-16T16:49:41.093Z,6.70
2018-07-16T16:52:09.865Z,5.50
2018-07-16T17:00:24.360Z,6.63
2018-07-16T17:02:52.854Z,6.20
2018-07-16T17:05:21.040Z,5.92
2018-07-16T17:07:49.534Z,5.27
2018-07-16T17:10:18.120Z,5.70
2018-07-16T17:12:46.632Z,5.90
2018-07-16T17:33:48.244Z,5.87
2018-07-16T17:36:17.646Z,7.20
2018-07-16T17:38:46.292Z,8.40
2018-07-16T17:59:02.999Z,7.05
2018-07-16T18:01:32.059Z,9.20
2018-07-16T18:04:00.898Z,7.97
2018-07-16T18:06:30.236Z,10.73
2018-07-16T18:08:58.942Z,7.83
2018-07-16T18:11:27.611Z,6.37
2018-07-16T18:13:56.222Z,7.43
2018-07-16T18:16:25.380Z,6.55
2018-07-16T18:18:54.020Z,6.97
2018-07-16T18:21:22.607Z,7.25
2018-07-16T18:23:50.779Z,7.30
2018-07-16T18:26:19.399Z,8.45
2018-07-16T18:28:47.943Z,7.73
2018-07-16T18:31:16.892Z,6.63
2018-07-16T18:33:45.267Z,7.62
2018-07-16T18:36:16.523Z,8.50
2018-07-16T18:38:45.858Z,9.03
2018-07-16T18:41:15.539Z,9.25
2018-07-16T18:43:44.466Z,9.17
2018-07-16T18:46:13.062Z,9.37
2018-07-16T18:48:41.555Z,8.93
2018-07-16T18:51:10.137Z,8.33
2018-07-16T18:53:38.684Z,8.70
2018-07-16T18:56:09.747Z,8.87
2018-07-16T18:58:38.983Z,8.00
2018-07-16T19:01:07.908Z,8.60
2018-07-16T19:03:37.488Z,8.40
2018-07-16T19:06:06.648Z,9.13
2018-07-16T19:08:35.188Z,9.10
2018-07-16T19:11:03.929Z,9.87
2018-07-16T19:13:32.446Z,9.20
2018-07-16T19:16:01.082Z,9.20
2018-07-16T19:18:30.579Z,10.20
2018-07-16T19:20:59.150Z,9.30
2018-07-16T19:23:29.111Z,9.70
2018-07-16T19:25:57.771Z,9.10
2018-07-16T19:28:28.206Z,10.80
2018-07-16T19:30:57.054Z,10.13
2018-07-16T19:33:25.574Z,11.23
2018-07-16T19:35:54.136Z,10.70
2018-07-16T19:38:22.671Z,11.17
2018-07-16T19:40:51.247Z,11.17
2018-07-16T19:43:20.640Z,11.10
2018-07-16T19:45:49.212Z,10.47
2018-07-16T19:48:17.846Z,11.20
2018-07-16T20:02:17.602Z,11.00
2018-07-16T20:04:45.901Z,10.57
2018-07-16T20:15:16.837Z,11.30
2018-07-16T20:17:46.049Z,11.75
2018-07-16T20:20:15.552Z,12.33
2018-07-16T20:22:44.152Z,12.63
2018-07-16T20:25:12.481Z,11.60
2018-07-16T20:27:41.712Z,11.10
2018-07-16T20:30:10.682Z,10.83
2018-07-16T20:32:39.361Z,11.37
2018-07-16T20:35:08.061Z,11.63
2018-07-16T20:37:37.161Z,12.23
2018-07-16T20:40:05.709Z,13.37
2018-07-16T20:44:54.801Z,12.83
2018-07-16T20:47:23.336Z,12.58
2018-07-16T20:49:52.377Z,13.43
2018-07-16T20:52:20.962Z,14.10
2018-07-16T20:54:49.862Z,14.18
2018-07-16T20:57:18.543Z,13.73
2018-07-16T20:59:47.765Z,13.33
2018-07-16T21:02:16.466Z,12.73
2018-07-16T21:04:44.974Z,13.70
2018-07-16T21:07:14.447Z,13.22
2018-07-16T21:09:42.901Z,13.63
2018-07-16T21:12:11.403Z,13.58
2018-07-16T21:14:39.914Z,14.50
2018-07-16T21:17:08.502Z,13.68
2018-07-16T21:19:37.014Z,13.30
2018-07-16T21:22:05.897Z,15.43
2018-07-16T21:24:34.383Z,12.53
2018-07-16T21:27:02.854Z,12.20
2018-07-16T21:29:31.328Z,12.23
2018-07-16T21:31:59.838Z,12.10
2018-07-16T21:34:28.310Z,11.20
2018-07-16T21:36:56.845Z,11.50
2018-07-16T21:39:25.298Z,12.63
2018-07-16T21:41:53.767Z,14.30
2018-07-16T21:44:23.486Z,13.73
2018-07-16T21:46:51.983Z,13.10
2018-07-16T21:49:20.446Z,14.07
2018-07-16T21:51:49.040Z,14.40
2018-07-16T21:54:17.546Z,14.27
2018-07-16T21:56:46.011Z,15.13
2018-07-16T21:59:15.531Z,16.37
2018-07-16T22:01:44.058Z,15.77
2018-07-16T22:04:12.575Z,15.50
2018-07-16T22:06:41.731Z,17.80
2018-07-16T22:09:11.042Z,16.10
2018-07-16T22:11:39.549Z,15.17
2018-07-16T22:14:08.043Z,15.23
2018-07-16T22:16:36.222Z,16.57
2018-07-16T22:19:05.090Z,18.00
2018-07-16T22:21:33.673Z,15.45
2018-07-16T22:24:02.192Z,16.67
2018-07-16T22:26:30.778Z,17.50
2018-07-16T22:28:59.680Z,16.83
2018-07-16T22:31:28.234Z,17.00
2018-07-16T22:33:56.761Z,16.33
2018-07-16T22:36:25.278Z,14.17
2018-07-16T22:38:53.726Z,17.10
2018-07-16T22:41:22.211Z,16.37
2018-07-16T22:43:50.814Z,15.60
2018-07-16T22:46:19.286Z,16.43
2018-07-16T22:48:47.757Z,15.60
2018-07-16T22:51:16.738Z,14.40
2018-07-16T22:53:45.201Z,16.17
2018-07-16T22:56:14.609Z,15.33
2018-07-16T22:58:43.175Z,15.33
2018-07-16T23:01:11.629Z,17.50
2018-07-16T23:03:40.103Z,18.43
2018-07-16T23:06:08.843Z,16.60
2018-07-16T23:08:37.384Z,16.87
2018-07-16T23:11:06.430Z,17.53
2018-07-16T23:13:35.098Z,15.90
2018-07-16T23:16:03.589Z,17.03
2018-07-16T23:18:32.083Z,16.20
2018-07-16T23:21:00.584Z,16.03
2018-07-16T23:23:29.043Z,17.23
2018-07-16T23:25:57.527Z,17.20
2018-07-16T23:28:26.080Z,16.37
2018-07-16T23:30:54.607Z,16.37
2018-07-16T23:33:23.106Z,16.90
2018-07-16T23:35:52.122Z,15.63
2018-07-16T23:38:20.652Z,17.45
2018-07-16T23:40:49.126Z,16.53
2018-07-16T23:43:17.634Z,16.50
2018-07-16T23:45:46.075Z,15.20
